PWSweather.com
Personal Weather Stations
Station Observations
KETX01
Ketx, PatraGR 26331

KetxPatraGR 26331

Lat: 38.238889, Lon: 21.751111

Elevation: 56

Station Type: Davis Instruments / Vantage Pro2 Plus

http://meteopatras.eu

High Low Average
Temperature 61.5°F16.4°C 53.5°F11.9°C 57.1°F13.9°C
Dew Point 49.1°F9.5°C 38.1°F3.4°C 45.3°F7.4°C
Winds 15.0 mph 24.1 kmh Calm Calm 4.0 mph S6.4 kmh S
Wind Gusts 20.7 mph33.3 kmh -- 6.0 mph9.7 kmh
Humidity 84% 47% 66%
Pressure 30.05 in1017.6 mb 29.97 in1014.9 mb -
Precipitation 0.55 in14.0 mm - -
Hour Temp Dew Point Humidity Winds Wind Gusts Pressure Precip Precip Rate Daily Precip Total
12:23 AM 56.6°F13.7°C 38.2°F3.4°C 50% 3.5 mph E5.6 kmh E 11.5 mph18.5 kmh 30.02 in1016.6 mb - 0.02 in0.5 mm 0.04 in1.0 mm
12:36 AM 56.5°F13.6°C 38.1°F3.4°C 50% 4.6 mph ESE7.4 kmh ESE 11.5 mph18.5 kmh 30.02 in1016.6 mb - 0.02 in0.5 mm 0.04 in1.0 mm
11:00 AM 59.5°F15.3°C 40.3°F4.6°C 49% 8.1 mph ENE13.0 kmh ENE 8.1 mph13.0 kmh 30.02 in1016.6 mb - 0.11 in2.8 mm 0.15 in3.8 mm
11:05 AM 59.7°F15.4°C 40.5°F4.7°C 49% 4.6 mph ENE7.4 kmh ENE 9.2 mph14.8 kmh 30.01 in1016.3 mb - 0.11 in2.8 mm 0.15 in3.8 mm
11:10 AM 59.9°F15.5°C 40.7°F4.8°C 49% 2.3 mph SE3.7 kmh SE 4.6 mph7.4 kmh 30.01 in1016.3 mb - 0.11 in2.8 mm 0.15 in3.8 mm
11:15 AM 60.1°F15.6°C 41.4°F5.2°C 50% Calm Calm 1.2 mph1.9 kmh 30.01 in1016.3 mb - 0.11 in2.8 mm 0.15 in3.8 mm
11:20 AM 60.3°F15.7°C 40.5°F4.7°C 48% 3.5 mph SW5.6 kmh SW 10.4 mph16.7 kmh 30.01 in1016.3 mb - 0.11 in2.8 mm 0.15 in3.8 mm
11:25 AM 60.5°F15.8°C 40.2°F4.6°C 47% 3.5 mph W5.6 kmh W 3.5 mph5.6 kmh 30.01 in1016.3 mb - 0.11 in2.8 mm 0.15 in3.8 mm
11:30 AM 60.6°F15.9°C 40.2°F4.6°C 47% 4.6 mph ESE7.4 kmh ESE 9.2 mph14.8 kmh 30.01 in1016.3 mb - 0.09 in2.3 mm 0.15 in3.8 mm
11:35 AM 60.5°F15.8°C 40.7°F4.8°C 48% 3.5 mph NE5.6 kmh NE 4.6 mph7.4 kmh 30.00 in1015.9 mb - 0.06 in1.5 mm 0.15 in3.8 mm
11:40 AM 60.6°F15.9°C 41.8°F5.4°C 50% 2.3 mph NE3.7 kmh NE 2.3 mph3.7 kmh 30.01 in1016.3 mb - 0.03 in0.8 mm 0.15 in3.8 mm
11:45 AM 60.5°F15.8°C 40.7°F4.8°C 48% 9.2 mph ENE14.8 kmh ENE 12.7 mph20.4 kmh 30.01 in1016.3 mb - 0.02 in0.5 mm 0.15 in3.8 mm
11:50 AM 60.6°F15.9°C 41.3°F5.2°C 49% 5.8 mph ESE9.3 kmh ESE 15.0 mph24.1 kmh 30.01 in1016.3 mb - 0.00 in0.0 mm 0.15 in3.8 mm
11:55 AM 60.3°F15.7°C 41.6°F5.3°C 50% 3.5 mph SSE5.6 kmh SSE 10.4 mph16.7 kmh 30.00 in1015.9 mb - 0.00 in0.0 mm 0.15 in3.8 mm
12:00 PM 59.9°F15.5°C 41.2°F5.1°C 50% 8.1 mph ESE13.0 kmh ESE 9.2 mph14.8 kmh 30.00 in1015.9 mb - 0.00 in0.0 mm 0.15 in3.8 mm
12:05 PM 59.9°F15.5°C 41.7°F5.4°C 51% 2.3 mph E3.7 kmh E 9.2 mph14.8 kmh 30.00 in1015.9 mb - 0.00 in0.0 mm 0.15 in3.8 mm
12:10 PM 60.3°F15.7°C 41.6°F5.3°C 50% 2.3 mph SSE3.7 kmh SSE 4.6 mph7.4 kmh 30.00 in1015.9 mb - 0.00 in0.0 mm 0.15 in3.8 mm
12:15 PM 60.8°F16.0°C 41.5°F5.3°C 49% 3.5 mph E5.6 kmh E 6.9 mph11.1 kmh 29.99 in1015.6 mb - 0.00 in0.0 mm 0.15 in3.8 mm
12:20 PM 61.3°F16.3°C 41.9°F5.5°C 49% 3.5 mph S5.6 kmh S 11.5 mph18.5 kmh 29.99 in1015.6 mb - 0.00 in0.0 mm 0.15 in3.8 mm
12:25 PM 61.2°F16.2°C 41.9°F5.5°C 49% 6.9 mph ESE11.1 kmh ESE 9.2 mph14.8 kmh 29.99 in1015.6 mb - 0.00 in0.0 mm 0.15 in3.8 mm
12:30 PM 61.2°F16.2°C 42.4°F5.8°C 50% 3.5 mph SE5.6 kmh SE 5.8 mph9.3 kmh 30.00 in1015.9 mb - 0.00 in0.0 mm 0.15 in3.8 mm
12:35 PM 60.9°F16.1°C 42.2°F5.7°C 50% 5.8 mph ESE9.3 kmh ESE 11.5 mph18.5 kmh 29.99 in1015.6 mb - 0.00 in0.0 mm 0.15 in3.8 mm
12:40 PM 60.7°F15.9°C 41.9°F5.5°C 50% 8.1 mph E13.0 kmh E 11.5 mph18.5 kmh 29.99 in1015.6 mb - 0.00 in0.0 mm 0.15 in3.8 mm
12:45 PM 60.6°F15.9°C 41.8°F5.4°C 50% 5.8 mph ENE9.3 kmh ENE 15.0 mph24.1 kmh 29.99 in1015.6 mb - 0.00 in0.0 mm 0.15 in3.8 mm
12:50 PM 60.7°F15.9°C 41.9°F5.5°C 50% 4.6 mph ENE7.4 kmh ENE 6.9 mph11.1 kmh 29.98 in1015.2 mb - 0.00 in0.0 mm 0.15 in3.8 mm
12:55 PM 61.0°F16.1°C 41.7°F5.4°C 49% 8.1 mph ESE13.0 kmh ESE 11.5 mph18.5 kmh 29.98 in1015.2 mb - 0.00 in0.0 mm 0.15 in3.8 mm
01:00 PM 60.7°F15.9°C 42.5°F5.8°C 51% 10.4 mph ESE16.7 kmh ESE 15.0 mph24.1 kmh 29.98 in1015.2 mb - 0.00 in0.0 mm 0.15 in3.8 mm
01:05 PM 60.4°F15.8°C 42.7°F5.9°C 52% 9.2 mph SE14.8 kmh SE 19.6 mph31.5 kmh 29.98 in1015.2 mb - 0.00 in0.0 mm 0.15 in3.8 mm
01:10 PM 60.0°F15.6°C 42.3°F5.7°C 52% 4.6 mph E7.4 kmh E 8.1 mph13.0 kmh 29.98 in1015.2 mb - 0.00 in0.0 mm 0.15 in3.8 mm
01:15 PM 60.3°F15.7°C 42.1°F5.6°C 51% 15.0 mph ESE24.1 kmh ESE 20.7 mph33.3 kmh 29.98 in1015.2 mb - 0.00 in0.0 mm 0.15 in3.8 mm
01:20 PM 60.2°F15.7°C 42.5°F5.8°C 52% 5.8 mph SE9.3 kmh SE 9.2 mph14.8 kmh 29.98 in1015.2 mb - 0.00 in0.0 mm 0.15 in3.8 mm
01:25 PM 60.6°F15.9°C 42.8°F6.0°C 52% 5.8 mph ESE9.3 kmh ESE 8.1 mph13.0 kmh 29.98 in1015.2 mb - 0.00 in0.0 mm 0.15 in3.8 mm
01:30 PM 60.7°F15.9°C 42.9°F6.1°C 52% 2.3 mph ESE3.7 kmh ESE 5.8 mph9.3 kmh 29.97 in1014.9 mb - 0.00 in0.0 mm 0.15 in3.8 mm
01:35 PM 60.8°F16.0°C 43.0°F6.1°C 52% 4.6 mph SE7.4 kmh SE 4.6 mph7.4 kmh 29.97 in1014.9 mb - 0.00 in0.0 mm 0.15 in3.8 mm
01:40 PM 61.1°F16.2°C 43.3°F6.3°C 52% 5.8 mph E9.3 kmh E 11.5 mph18.5 kmh 29.98 in1015.2 mb - 0.00 in0.0 mm 0.15 in3.8 mm
01:45 PM 61.4°F16.3°C 43.6°F6.4°C 52% 10.4 mph NE16.7 kmh NE 17.3 mph27.8 kmh 29.98 in1015.2 mb - 0.00 in0.0 mm 0.15 in3.8 mm
01:50 PM 61.5°F16.4°C 43.2°F6.2°C 51% 3.5 mph WSW5.6 kmh WSW 3.5 mph5.6 kmh 29.98 in1015.2 mb - 0.00 in0.0 mm 0.15 in3.8 mm
01:55 PM 61.5°F16.4°C 43.2°F6.2°C 51% 2.3 mph E3.7 kmh E 3.5 mph5.6 kmh 29.98 in1015.2 mb - 0.00 in0.0 mm 0.15 in3.8 mm
02:00 PM 61.3°F16.3°C 44.0°F6.7°C 53% 3.5 mph NW5.6 kmh NW 3.5 mph5.6 kmh 29.98 in1015.2 mb - 0.00 in0.0 mm 0.15 in3.8 mm
02:05 PM 60.9°F16.1°C 44.1°F6.7°C 54% 5.8 mph WNW9.3 kmh WNW 8.1 mph13.0 kmh 29.98 in1015.2 mb - 0.00 in0.0 mm 0.15 in3.8 mm
02:10 PM 60.7°F15.9°C 43.9°F6.6°C 54% 1.2 mph WNW1.9 kmh WNW 3.5 mph5.6 kmh 29.97 in1014.9 mb - 0.00 in0.0 mm 0.15 in3.8 mm
02:15 PM 60.8°F16.0°C 44.5°F6.9°C 55% 2.3 mph ESE3.7 kmh ESE 4.6 mph7.4 kmh 29.97 in1014.9 mb - 0.00 in0.0 mm 0.15 in3.8 mm
02:20 PM 60.9°F16.1°C 43.1°F6.2°C 52% 2.3 mph NE3.7 kmh NE 3.5 mph5.6 kmh 29.97 in1014.9 mb - 0.00 in0.0 mm 0.15 in3.8 mm
02:25 PM 61.1°F16.2°C 43.8°F6.6°C 53% 5.8 mph N9.3 kmh N 9.2 mph14.8 kmh 29.97 in1014.9 mb - 0.00 in0.0 mm 0.15 in3.8 mm
02:30 PM 60.9°F16.1°C 43.6°F6.4°C 53% 3.5 mph WNW5.6 kmh WNW 3.5 mph5.6 kmh 29.98 in1015.2 mb - 0.00 in0.0 mm 0.15 in3.8 mm
02:35 PM 60.6°F15.9°C 43.9°F6.6°C 54% 2.3 mph W3.7 kmh W 3.5 mph5.6 kmh 29.98 in1015.2 mb - 0.00 in0.0 mm 0.15 in3.8 mm
02:40 PM 60.5°F15.8°C 43.7°F6.5°C 54% 6.9 mph NW11.1 kmh NW 11.5 mph18.5 kmh 29.98 in1015.2 mb - 0.00 in0.0 mm 0.15 in3.8 mm
02:45 PM 60.3°F15.7°C 43.6°F6.4°C 54% 4.6 mph WNW7.4 kmh WNW 3.5 mph5.6 kmh 29.98 in1015.2 mb - 0.00 in0.0 mm 0.15 in3.8 mm
02:50 PM 60.1°F15.6°C 43.8°F6.6°C 55% 1.2 mph WNW1.9 kmh WNW 2.3 mph3.7 kmh 29.98 in1015.2 mb - 0.00 in0.0 mm 0.15 in3.8 mm
02:55 PM 59.8°F15.4°C 44.1°F6.7°C 56% 3.5 mph WNW5.6 kmh WNW 6.9 mph11.1 kmh 29.98 in1015.2 mb - 0.00 in0.0 mm 0.15 in3.8 mm
03:00 PM 59.7°F15.4°C 43.5°F6.4°C 55% 3.5 mph NW5.6 kmh NW 4.6 mph7.4 kmh 29.98 in1015.2 mb - 0.01 in0.3 mm 0.16 in4.1 mm
03:05 PM 59.4°F15.2°C 44.6°F7.0°C 58% 3.5 mph NNW5.6 kmh NNW 3.5 mph5.6 kmh 29.99 in1015.6 mb - 0.01 in0.3 mm 0.16 in4.1 mm
03:10 PM 59.0°F15.0°C 46.0°F7.8°C 62% 2.3 mph NNW3.7 kmh NNW 3.5 mph5.6 kmh 29.98 in1015.2 mb - 0.01 in0.3 mm 0.16 in4.1 mm
03:15 PM 58.7°F14.8°C 45.7°F7.6°C 62% 2.3 mph SW3.7 kmh SW 4.6 mph7.4 kmh 29.98 in1015.2 mb - 0.01 in0.3 mm 0.16 in4.1 mm
03:20 PM 58.6°F14.8°C 46.5°F8.1°C 64% 2.3 mph SW3.7 kmh SW 3.5 mph5.6 kmh 29.98 in1015.2 mb - 0.02 in0.5 mm 0.17 in4.3 mm
03:25 PM 58.4°F14.7°C 47.5°F8.6°C 67% 2.3 mph WSW3.7 kmh WSW 3.5 mph5.6 kmh 29.98 in1015.2 mb - 0.02 in0.5 mm 0.17 in4.3 mm
03:30 PM 58.1°F14.5°C 47.6°F8.7°C 68% 3.5 mph S5.6 kmh S 4.6 mph7.4 kmh 29.98 in1015.2 mb - 0.02 in0.5 mm 0.17 in4.3 mm
03:35 PM 57.8°F14.3°C 46.1°F7.8°C 65% 5.8 mph E9.3 kmh E 11.5 mph18.5 kmh 29.98 in1015.2 mb - 0.02 in0.5 mm 0.17 in4.3 mm
03:40 PM 58.0°F14.4°C 44.6°F7.0°C 61% 3.5 mph ENE5.6 kmh ENE 3.5 mph5.6 kmh 29.98 in1015.2 mb - 0.02 in0.5 mm 0.17 in4.3 mm
03:45 PM 58.3°F14.6°C 44.9°F7.2°C 61% 2.3 mph S3.7 kmh S 5.8 mph9.3 kmh 29.98 in1015.2 mb - 0.02 in0.5 mm 0.17 in4.3 mm
03:50 PM 58.3°F14.6°C 45.8°F7.7°C 63% 1.2 mph SW1.9 kmh SW 3.5 mph5.6 kmh 29.98 in1015.2 mb - 0.02 in0.5 mm 0.17 in4.3 mm
03:55 PM 57.9°F14.4°C 45.8°F7.7°C 64% 2.3 mph SE3.7 kmh SE 5.8 mph9.3 kmh 29.98 in1015.2 mb - 0.03 in0.8 mm 0.18 in4.6 mm
04:00 PM 57.5°F14.2°C 46.2°F7.9°C 66% 4.6 mph E7.4 kmh E 5.8 mph9.3 kmh 29.98 in1015.2 mb - 0.03 in0.8 mm 0.18 in4.6 mm
04:05 PM 57.2°F14.0°C 46.7°F8.2°C 68% 3.5 mph ENE5.6 kmh ENE 4.6 mph7.4 kmh 29.97 in1014.9 mb - 0.02 in0.5 mm 0.18 in4.6 mm
04:10 PM 56.9°F13.8°C 46.4°F8.0°C 68% 3.5 mph N5.6 kmh N 5.8 mph9.3 kmh 29.98 in1015.2 mb - 0.02 in0.5 mm 0.18 in4.6 mm
04:15 PM 56.8°F13.8°C 46.7°F8.2°C 69% 1.2 mph N1.9 kmh N 3.5 mph5.6 kmh 29.98 in1015.2 mb - 0.02 in0.5 mm 0.18 in4.6 mm
04:20 PM 56.6°F13.7°C 47.0°F8.3°C 70% 3.5 mph SW5.6 kmh SW 4.6 mph7.4 kmh 29.98 in1015.2 mb - 0.01 in0.3 mm 0.18 in4.6 mm
04:25 PM 56.6°F13.7°C 45.7°F7.6°C 67% 3.5 mph SE5.6 kmh SE 6.9 mph11.1 kmh 29.98 in1015.2 mb - 0.01 in0.3 mm 0.18 in4.6 mm
04:30 PM 57.2°F14.0°C 45.9°F7.7°C 66% 4.6 mph WNW7.4 kmh WNW 9.2 mph14.8 kmh 29.97 in1014.9 mb - 0.01 in0.3 mm 0.18 in4.6 mm
04:35 PM 57.2°F14.0°C 46.7°F8.2°C 68% 2.3 mph WSW3.7 kmh WSW 3.5 mph5.6 kmh 29.97 in1014.9 mb - 0.01 in0.3 mm 0.18 in4.6 mm
04:40 PM 56.8°F13.8°C 46.3°F7.9°C 68% 4.6 mph NW7.4 kmh NW 3.5 mph5.6 kmh 29.98 in1015.2 mb - 0.01 in0.3 mm 0.18 in4.6 mm
04:45 PM 56.5°F13.6°C 46.4°F8.0°C 69% 3.5 mph NW5.6 kmh NW 3.5 mph5.6 kmh 29.98 in1015.2 mb - 0.01 in0.3 mm 0.18 in4.6 mm
04:50 PM 56.6°F13.7°C 46.2°F7.9°C 68% 3.5 mph NW5.6 kmh NW 4.6 mph7.4 kmh 29.98 in1015.2 mb - 0.01 in0.3 mm 0.18 in4.6 mm
04:55 PM 56.9°F13.8°C 46.4°F8.0°C 68% 3.5 mph W5.6 kmh W 6.9 mph11.1 kmh 29.98 in1015.2 mb - 0.00 in0.0 mm 0.18 in4.6 mm
05:00 PM 57.0°F13.9°C 45.7°F7.6°C 66% 2.3 mph NNE3.7 kmh NNE 3.5 mph5.6 kmh 29.98 in1015.2 mb - 0.00 in0.0 mm 0.18 in4.6 mm
05:05 PM 56.9°F13.8°C 46.1°F7.8°C 67% 3.5 mph N5.6 kmh N 3.5 mph5.6 kmh 29.98 in1015.2 mb - 0.00 in0.0 mm 0.18 in4.6 mm
05:10 PM 56.9°F13.8°C 46.1°F7.8°C 67% 3.5 mph N5.6 kmh N 11.5 mph18.5 kmh 29.98 in1015.2 mb - 0.00 in0.0 mm 0.18 in4.6 mm
05:15 PM 57.2°F14.0°C 45.9°F7.7°C 66% 2.3 mph NE3.7 kmh NE 4.6 mph7.4 kmh 29.99 in1015.6 mb - 0.00 in0.0 mm 0.18 in4.6 mm
05:20 PM 57.2°F14.0°C 47.1°F8.4°C 69% Calm Calm 2.3 mph3.7 kmh 29.99 in1015.6 mb - 0.00 in0.0 mm 0.18 in4.6 mm
05:25 PM 56.9°F13.8°C 47.6°F8.7°C 71% 2.3 mph NE3.7 kmh NE 3.5 mph5.6 kmh 29.99 in1015.6 mb - 0.01 in0.3 mm 0.19 in4.8 mm
05:30 PM 56.5°F13.6°C 46.5°F8.1°C 69% 4.6 mph ESE7.4 kmh ESE 5.8 mph9.3 kmh 29.99 in1015.6 mb - 0.01 in0.3 mm 0.19 in4.8 mm
05:35 PM 56.8°F13.8°C 46.0°F7.8°C 67% 3.5 mph ESE5.6 kmh ESE 5.8 mph9.3 kmh 30.00 in1015.9 mb - 0.01 in0.3 mm 0.19 in4.8 mm
05:40 PM 56.8°F13.8°C 46.0°F7.8°C 67% 4.6 mph SE7.4 kmh SE 15.0 mph24.1 kmh 30.00 in1015.9 mb - 0.02 in0.5 mm 0.20 in5.1 mm
05:45 PM 56.7°F13.7°C 45.5°F7.5°C 66% 8.1 mph E13.0 kmh E 11.5 mph18.5 kmh 30.01 in1016.3 mb - 0.02 in0.5 mm 0.20 in5.1 mm
05:50 PM 56.6°F13.7°C 46.2°F7.9°C 68% Calm Calm 1.2 mph1.9 kmh 30.00 in1015.9 mb - 0.02 in0.5 mm 0.20 in5.1 mm
05:55 PM 56.3°F13.5°C 47.4°F8.6°C 72% 1.2 mph E1.9 kmh E 2.3 mph3.7 kmh 30.01 in1016.3 mb - 0.03 in0.8 mm 0.21 in5.3 mm
06:00 PM 55.9°F13.3°C 46.6°F8.1°C 71% 3.5 mph NE5.6 kmh NE 4.6 mph7.4 kmh 30.01 in1016.3 mb - 0.04 in1.0 mm 0.22 in5.6 mm
06:05 PM 55.8°F13.2°C 46.5°F8.1°C 71% 3.5 mph ESE5.6 kmh ESE 3.5 mph5.6 kmh 30.01 in1016.3 mb - 0.05 in1.3 mm 0.23 in5.8 mm
06:10 PM 55.6°F13.1°C 45.9°F7.7°C 70% 2.3 mph E3.7 kmh E 5.8 mph9.3 kmh 30.01 in1016.3 mb - 0.06 in1.5 mm 0.24 in6.1 mm
06:15 PM 55.6°F13.1°C 46.0°F7.8°C 70% 1.2 mph SE1.9 kmh SE 2.3 mph3.7 kmh 30.01 in1016.3 mb - 0.06 in1.5 mm 0.24 in6.1 mm
06:20 PM 55.4°F13.0°C 47.2°F8.4°C 74% 4.6 mph NW7.4 kmh NW 5.8 mph9.3 kmh 30.01 in1016.3 mb - 0.06 in1.5 mm 0.24 in6.1 mm
06:25 PM 55.2°F12.9°C 47.4°F8.6°C 75% 1.2 mph WNW1.9 kmh WNW 2.3 mph3.7 kmh 30.01 in1016.3 mb - 0.06 in1.5 mm 0.25 in6.4 mm
06:30 PM 55.0°F12.8°C 47.9°F8.8°C 77% Calm Calm -- 30.01 in1016.3 mb - 0.06 in1.5 mm 0.25 in6.4 mm
06:35 PM 54.7°F12.6°C 48.0°F8.9°C 78% 2.3 mph WNW3.7 kmh WNW 3.5 mph5.6 kmh 30.01 in1016.3 mb - 0.07 in1.8 mm 0.26 in6.6 mm
06:40 PM 54.3°F12.4°C 48.6°F9.2°C 81% 2.3 mph WNW3.7 kmh WNW 2.3 mph3.7 kmh 30.01 in1016.3 mb - 0.06 in1.5 mm 0.26 in6.6 mm
06:45 PM 54.1°F12.3°C 48.7°F9.3°C 82% 2.3 mph NNW3.7 kmh NNW 3.5 mph5.6 kmh 30.01 in1016.3 mb - 0.07 in1.8 mm 0.27 in6.9 mm
06:50 PM 53.9°F12.2°C 48.9°F9.4°C 83% 1.2 mph NNW1.9 kmh NNW 2.3 mph3.7 kmh 30.01 in1016.3 mb - 0.08 in2.0 mm 0.28 in7.1 mm
06:55 PM 53.8°F12.1°C 49.1°F9.5°C 84% 2.3 mph NNW3.7 kmh NNW 3.5 mph5.6 kmh 30.00 in1015.9 mb - 0.07 in1.8 mm 0.28 in7.1 mm
07:00 PM 53.8°F12.1°C 49.1°F9.5°C 84% 1.2 mph NNW1.9 kmh NNW 8.1 mph13.0 kmh 30.00 in1015.9 mb - 0.06 in1.5 mm 0.28 in7.1 mm
07:05 PM 53.8°F12.1°C 48.1°F8.9°C 81% 2.3 mph NW3.7 kmh NW 3.5 mph5.6 kmh 30.00 in1015.9 mb - 0.05 in1.3 mm 0.28 in7.1 mm
07:10 PM 54.0°F12.2°C 48.0°F8.9°C 80% 1.2 mph WNW1.9 kmh WNW 3.5 mph5.6 kmh 30.00 in1015.9 mb - 0.04 in1.0 mm 0.28 in7.1 mm
07:15 PM 54.1°F12.3°C 46.7°F8.2°C 76% 1.2 mph WNW1.9 kmh WNW 3.5 mph5.6 kmh 30.00 in1015.9 mb - 0.04 in1.0 mm 0.28 in7.1 mm
07:20 PM 54.3°F12.4°C 47.2°F8.4°C 77% 1.2 mph ENE1.9 kmh ENE 2.3 mph3.7 kmh 30.01 in1016.3 mb - 0.04 in1.0 mm 0.28 in7.1 mm
07:25 PM 54.3°F12.4°C 47.9°F8.8°C 79% Calm Calm 3.5 mph5.6 kmh 30.01 in1016.3 mb - 0.04 in1.0 mm 0.28 in7.1 mm
07:30 PM 54.3°F12.4°C 47.6°F8.7°C 78% 1.2 mph NNW1.9 kmh NNW 2.3 mph3.7 kmh 30.02 in1016.6 mb - 0.04 in1.0 mm 0.29 in7.4 mm
07:35 PM 54.5°F12.5°C 48.1°F8.9°C 79% 3.5 mph SE5.6 kmh SE 3.5 mph5.6 kmh 30.02 in1016.6 mb - 0.03 in0.8 mm 0.29 in7.4 mm
07:40 PM 54.4°F12.4°C 48.0°F8.9°C 79% 3.5 mph SE5.6 kmh SE 4.6 mph7.4 kmh 30.02 in1016.6 mb - 0.04 in1.0 mm 0.30 in7.6 mm
07:45 PM 54.4°F12.4°C 49.1°F9.5°C 82% 2.3 mph E3.7 kmh E 3.5 mph5.6 kmh 30.02 in1016.6 mb - 0.03 in0.8 mm 0.30 in7.6 mm
07:50 PM 54.2°F12.3°C 48.5°F9.2°C 81% 2.3 mph NW3.7 kmh NW 3.5 mph5.6 kmh 30.03 in1016.9 mb - 0.03 in0.8 mm 0.31 in7.9 mm
07:55 PM 54.4°F12.4°C 48.3°F9.1°C 80% 2.3 mph N3.7 kmh N 3.5 mph5.6 kmh 30.03 in1016.9 mb - 0.04 in1.0 mm 0.32 in8.1 mm
08:00 PM 54.3°F12.4°C 47.6°F8.7°C 78% 2.3 mph E3.7 kmh E 3.5 mph5.6 kmh 30.03 in1016.9 mb - 0.05 in1.3 mm 0.33 in8.4 mm
08:05 PM 54.4°F12.4°C 48.0°F8.9°C 79% 1.2 mph E1.9 kmh E 2.3 mph3.7 kmh 30.03 in1016.9 mb - 0.06 in1.5 mm 0.34 in8.6 mm
08:10 PM 54.4°F12.4°C 48.0°F8.9°C 79% 6.9 mph NNW11.1 kmh NNW 8.1 mph13.0 kmh 30.03 in1016.9 mb - 0.07 in1.8 mm 0.35 in8.9 mm
08:15 PM 54.4°F12.4°C 48.4°F9.1°C 80% Calm Calm 2.3 mph3.7 kmh 30.03 in1016.9 mb - 0.08 in2.0 mm 0.36 in9.1 mm
08:20 PM 54.2°F12.3°C 48.5°F9.2°C 81% 2.3 mph NW3.7 kmh NW 3.5 mph5.6 kmh 30.03 in1016.9 mb - 0.08 in2.0 mm 0.36 in9.1 mm
08:25 PM 54.0°F12.2°C 48.3°F9.1°C 81% 1.2 mph NW1.9 kmh NW 3.5 mph5.6 kmh 30.03 in1016.9 mb - 0.09 in2.3 mm 0.37 in9.4 mm
08:30 PM 53.9°F12.2°C 48.5°F9.2°C 82% 2.3 mph NE3.7 kmh NE 2.3 mph3.7 kmh 30.03 in1016.9 mb - 0.09 in2.3 mm 0.38 in9.7 mm
08:35 PM 53.6°F12.0°C 48.6°F9.2°C 83% 1.2 mph NE1.9 kmh NE 2.3 mph3.7 kmh 30.03 in1016.9 mb - 0.09 in2.3 mm 0.38 in9.7 mm
08:40 PM 53.5°F11.9°C 48.2°F9.0°C 82% 3.5 mph NNW5.6 kmh NNW 8.1 mph13.0 kmh 30.02 in1016.6 mb - 0.10 in2.5 mm 0.40 in10.2 mm
08:45 PM 53.8°F12.1°C 48.1°F8.9°C 81% 3.5 mph N5.6 kmh N 5.8 mph9.3 kmh 30.02 in1016.6 mb - 0.10 in2.5 mm 0.40 in10.2 mm
08:50 PM 54.0°F12.2°C 47.3°F8.5°C 78% 3.5 mph N5.6 kmh N 8.1 mph13.0 kmh 30.01 in1016.3 mb - 0.09 in2.3 mm 0.40 in10.2 mm
08:55 PM 54.2°F12.3°C 46.4°F8.0°C 75% 5.8 mph ENE9.3 kmh ENE 9.2 mph14.8 kmh 30.00 in1015.9 mb - 0.09 in2.3 mm 0.40 in10.2 mm
09:00 PM 54.5°F12.5°C 47.1°F8.4°C 76% 4.6 mph NNE7.4 kmh NNE 5.8 mph9.3 kmh 30.00 in1015.9 mb - 0.08 in2.0 mm 0.40 in10.2 mm
09:05 PM 54.3°F12.4°C 46.2°F7.9°C 74% 4.6 mph NNW7.4 kmh NNW 10.4 mph16.7 kmh 30.00 in1015.9 mb - 0.06 in1.5 mm 0.40 in10.2 mm
09:10 PM 54.2°F12.3°C 46.8°F8.2°C 76% 2.3 mph NNE3.7 kmh NNE 3.5 mph5.6 kmh 30.01 in1016.3 mb - 0.05 in1.3 mm 0.40 in10.2 mm
09:15 PM 54.0°F12.2°C 47.3°F8.5°C 78% 1.2 mph SE1.9 kmh SE 2.3 mph3.7 kmh 30.02 in1016.6 mb - 0.06 in1.5 mm 0.41 in10.4 mm
09:20 PM 53.8°F12.1°C 47.5°F8.6°C 79% 1.2 mph SE1.9 kmh SE 3.5 mph5.6 kmh 30.02 in1016.6 mb - 0.05 in1.3 mm 0.41 in10.4 mm
09:25 PM 53.7°F12.1°C 47.7°F8.7°C 80% 2.3 mph NNE3.7 kmh NNE 3.5 mph5.6 kmh 30.02 in1016.6 mb - 0.05 in1.3 mm 0.42 in10.7 mm
09:30 PM 53.7°F12.1°C 47.7°F8.7°C 80% Calm Calm -- 30.03 in1016.9 mb - 0.04 in1.0 mm 0.42 in10.7 mm
09:35 PM 53.7°F12.1°C 47.7°F8.7°C 80% 3.5 mph WNW5.6 kmh WNW 5.8 mph9.3 kmh 30.04 in1017.3 mb - 0.05 in1.3 mm 0.43 in10.9 mm
09:40 PM 54.3°F12.4°C 45.8°F7.7°C 73% 2.3 mph WSW3.7 kmh WSW 3.5 mph5.6 kmh 30.04 in1017.3 mb - 0.05 in1.3 mm 0.44 in11.2 mm
09:45 PM 55.0°F12.8°C 46.9°F8.3°C 74% Calm Calm 1.2 mph1.9 kmh 30.05 in1017.6 mb - 0.05 in1.3 mm 0.45 in11.4 mm
09:50 PM 54.8°F12.7°C 47.4°F8.6°C 76% 3.5 mph NNE5.6 kmh NNE 6.9 mph11.1 kmh 30.04 in1017.3 mb - 0.07 in1.8 mm 0.47 in11.9 mm
09:55 PM 54.3°F12.4°C 47.2°F8.4°C 77% 9.2 mph N14.8 kmh N 18.4 mph29.6 kmh 30.03 in1016.9 mb - 0.09 in2.3 mm 0.49 in12.4 mm
10:00 PM 54.2°F12.3°C 46.8°F8.2°C 76% 2.3 mph NNW3.7 kmh NNW 3.5 mph5.6 kmh 30.03 in1016.9 mb - 0.10 in2.5 mm 0.50 in12.7 mm
10:05 PM 54.2°F12.3°C 45.7°F7.6°C 73% 4.6 mph N7.4 kmh N 4.6 mph7.4 kmh 30.03 in1016.9 mb - 0.11 in2.8 mm 0.51 in13.0 mm
10:10 PM 54.4°F12.4°C 46.3°F7.9°C 74% 1.2 mph N1.9 kmh N 2.3 mph3.7 kmh 30.03 in1016.9 mb - 0.12 in3.0 mm 0.52 in13.2 mm
10:15 PM 54.2°F12.3°C 46.8°F8.2°C 76% 4.6 mph SW7.4 kmh SW 6.9 mph11.1 kmh 30.02 in1016.6 mb - 0.12 in3.0 mm 0.53 in13.5 mm
10:20 PM 54.0°F12.2°C 46.3°F7.9°C 75% 5.8 mph NW9.3 kmh NW 6.9 mph11.1 kmh 30.02 in1016.6 mb - 0.12 in3.0 mm 0.53 in13.5 mm
10:25 PM 54.0°F12.2°C 46.6°F8.1°C 76% 5.8 mph N9.3 kmh N 11.5 mph18.5 kmh 30.02 in1016.6 mb - 0.12 in3.0 mm 0.54 in13.7 mm
10:30 PM 54.3°F12.4°C 45.5°F7.5°C 72% 11.5 mph NNW18.5 kmh NNW 15.0 mph24.1 kmh 30.01 in1016.3 mb - 0.12 in3.0 mm 0.54 in13.7 mm
10:35 PM 54.5°F12.5°C 45.7°F7.6°C 72% 9.2 mph N14.8 kmh N 12.7 mph20.4 kmh 30.00 in1015.9 mb - 0.11 in2.8 mm 0.54 in13.7 mm
10:40 PM 54.7°F12.6°C 45.8°F7.7°C 72% 4.6 mph N7.4 kmh N 11.5 mph18.5 kmh 30.00 in1015.9 mb - 0.10 in2.5 mm 0.54 in13.7 mm
10:45 PM 54.4°F12.4°C 46.3°F7.9°C 74% 4.6 mph NE7.4 kmh NE 6.9 mph11.1 kmh 30.00 in1015.9 mb - 0.09 in2.3 mm 0.54 in13.7 mm
10:50 PM 54.0°F12.2°C 46.6°F8.1°C 76% 5.8 mph NE9.3 kmh NE 9.2 mph14.8 kmh 30.00 in1015.9 mb - 0.07 in1.8 mm 0.54 in13.7 mm
10:55 PM 53.8°F12.1°C 47.1°F8.4°C 78% 3.5 mph E5.6 kmh E 5.8 mph9.3 kmh 30.00 in1015.9 mb - 0.05 in1.3 mm 0.54 in13.7 mm
11:00 PM 53.7°F12.1°C 46.0°F7.8°C 75% 2.3 mph SE3.7 kmh SE 2.3 mph3.7 kmh 30.00 in1015.9 mb - 0.04 in1.0 mm 0.54 in13.7 mm
11:05 PM 54.3°F12.4°C 46.2°F7.9°C 74% 2.3 mph E3.7 kmh E 6.9 mph11.1 kmh 30.00 in1015.9 mb - 0.03 in0.8 mm 0.54 in13.7 mm
11:10 PM 54.9°F12.7°C 45.3°F7.4°C 70% 2.3 mph NW3.7 kmh NW 6.9 mph11.1 kmh 30.00 in1015.9 mb - 0.02 in0.5 mm 0.54 in13.7 mm
11:15 PM 55.7°F13.2°C 45.6°F7.6°C 69% 10.4 mph N16.7 kmh N 19.6 mph31.5 kmh 29.99 in1015.6 mb - 0.02 in0.5 mm 0.54 in13.7 mm
11:20 PM 55.9°F13.3°C 45.9°F7.7°C 69% 8.1 mph NNE13.0 kmh NNE 15.0 mph24.1 kmh 29.99 in1015.6 mb - 0.01 in0.3 mm 0.54 in13.7 mm
11:25 PM 56.2°F13.4°C 45.4°F7.4°C 67% 9.2 mph NE14.8 kmh NE 10.4 mph16.7 kmh 29.99 in1015.6 mb - 0.01 in0.3 mm 0.55 in14.0 mm
11:30 PM 56.7°F13.7°C 45.1°F7.3°C 65% 4.6 mph N7.4 kmh N 6.9 mph11.1 kmh 29.99 in1015.6 mb - 0.01 in0.3 mm 0.55 in14.0 mm
11:35 PM 56.4°F13.6°C 45.2°F7.3°C 66% 6.9 mph NE11.1 kmh NE 11.5 mph18.5 kmh 29.98 in1015.2 mb - 0.01 in0.3 mm 0.55 in14.0 mm
11:40 PM 57.0°F13.9°C 45.4°F7.4°C 65% 6.9 mph N11.1 kmh N 9.2 mph14.8 kmh 29.98 in1015.2 mb - 0.01 in0.3 mm 0.55 in14.0 mm
11:45 PM 57.4°F14.1°C 46.5°F8.1°C 67% 4.6 mph ESE7.4 kmh ESE 3.5 mph5.6 kmh 29.98 in1015.2 mb - 0.01 in0.3 mm 0.55 in14.0 mm
11:50 PM 56.5°F13.6°C 46.9°F8.3°C 70% 4.6 mph ENE7.4 kmh ENE 9.2 mph14.8 kmh 29.98 in1015.2 mb - 0.01 in0.3 mm 0.55 in14.0 mm
11:55 PM 56.4°F13.6°C 46.7°F8.2°C 70% 4.6 mph ESE7.4 kmh ESE 6.9 mph11.1 kmh 29.98 in1015.2 mb - 0.01 in0.3 mm 0.55 in14.0 mm